createdAt,value
2023-01-21T00:00:02.212Z,16
2023-01-21T00:01:01.956Z,16
2023-01-21T00:02:02.308Z,16
2023-01-21T00:03:02.185Z,15
2023-01-21T00:04:01.799Z,16
2023-01-21T00:05:01.883Z,16
2023-01-21T00:06:01.704Z,16
2023-01-21T00:07:02.570Z,17
2023-01-21T00:08:02.869Z,17
2023-01-21T00:09:01.730Z,17
2023-01-21T00:10:01.759Z,15
2023-01-21T00:11:02.339Z,16
2023-01-21T00:12:01.727Z,16
2023-01-21T00:13:01.719Z,16
2023-01-21T00:14:01.685Z,16
2023-01-21T00:15:02.609Z,16
2023-01-21T00:16:02.291Z,16
2023-01-21T00:17:01.693Z,16
2023-01-21T00:18:01.722Z,15
2023-01-21T00:19:01.690Z,15
2023-01-21T00:20:01.782Z,15
2023-01-21T00:21:01.698Z,16
2023-01-21T00:22:01.828Z,15
2023-01-21T00:23:01.801Z,15
2023-01-21T00:24:01.952Z,15
2023-01-21T00:25:01.692Z,16
2023-01-21T00:26:01.905Z,16
2023-01-21T00:27:01.704Z,16
2023-01-21T00:28:01.779Z,15
2023-01-21T00:29:01.998Z,15
2023-01-21T00:30:01.718Z,15
2023-01-21T00:31:01.848Z,15
2023-01-21T00:32:02.039Z,14
2023-01-21T00:33:02.187Z,15
2023-01-21T00:34:02.624Z,14
2023-01-21T00:35:01.718Z,15
2023-01-21T00:36:01.789Z,15
2023-01-21T00:37:02.653Z,15
2023-01-21T00:38:02.201Z,15
2023-01-21T00:39:00.492Z,15
2023-01-21T00:40:03.734Z,15
2023-01-21T00:41:01.697Z,15
2023-01-21T00:42:02.037Z,14
2023-01-21T00:43:01.905Z,15
2023-01-21T00:44:02.099Z,14
2023-01-21T00:45:01.770Z,15
2023-01-21T00:46:01.870Z,15
2023-01-21T00:47:01.977Z,14
2023-01-21T00:48:01.679Z,14
2023-01-21T00:49:01.732Z,14
2023-01-21T00:50:02.544Z,14
2023-01-21T00:51:02.148Z,14
2023-01-21T00:52:01.896Z,14
2023-01-21T00:53:02.218Z,15
2023-01-21T00:54:01.904Z,15
2023-01-21T00:55:02.088Z,14
2023-01-21T00:56:01.737Z,14
2023-01-21T00:57:02.313Z,15
2023-01-21T00:58:01.692Z,14
2023-01-21T00:59:02.179Z,15
2023-01-21T01:00:02.560Z,15
2023-01-21T01:01:01.969Z,14
2023-01-21T01:02:02.769Z,14
2023-01-21T01:03:02.623Z,15
2023-01-21T01:04:02.337Z,15
2023-01-21T01:05:01.856Z,14
2023-01-21T01:06:01.931Z,14
2023-01-21T01:07:01.853Z,15
2023-01-21T01:08:01.777Z,15
2023-01-21T01:09:01.921Z,15
2023-01-21T01:10:02.317Z,15
2023-01-21T01:11:02.425Z,15
2023-01-21T01:12:02.248Z,14
2023-01-21T01:13:01.712Z,14
2023-01-21T01:14:02.577Z,14
2023-01-21T01:15:02.580Z,14
2023-01-21T01:16:02.770Z,14
2023-01-21T01:17:02.683Z,15
2023-01-21T01:18:02.652Z,14
2023-01-21T01:19:02.348Z,14
2023-01-21T01:20:02.720Z,14
2023-01-21T01:21:01.837Z,14
2023-01-21T01:22:02.236Z,13
2023-01-21T01:23:01.724Z,13
2023-01-21T01:24:00.556Z,14
2023-01-21T01:25:02.443Z,13
2023-01-21T01:26:01.885Z,15
2023-01-21T01:27:02.199Z,14
2023-01-21T01:28:01.725Z,13
2023-01-21T01:29:01.763Z,13
2023-01-21T01:30:01.694Z,14
2023-01-21T01:31:02.290Z,13
2023-01-21T01:32:01.697Z,13
2023-01-21T01:33:02.118Z,14
2023-01-21T01:34:02.207Z,13
2023-01-21T01:35:02.164Z,13
2023-01-21T01:36:01.726Z,13
2023-01-21T01:37:01.889Z,13
2023-01-21T01:38:02.487Z,14
2023-01-21T01:39:01.717Z,12
2023-01-21T01:40:02.366Z,14
2023-01-21T01:41:01.703Z,12
2023-01-21T01:42:01.677Z,14
2023-01-21T01:43:01.892Z,13
2023-01-21T01:44:02.429Z,12
2023-01-21T01:45:01.767Z,13
2023-01-21T01:46:02.451Z,13
2023-01-21T01:47:01.701Z,12
2023-01-21T01:48:02.304Z,14
2023-01-21T01:49:01.707Z,12
2023-01-21T01:50:01.731Z,14
2023-01-21T01:51:02.596Z,13
2023-01-21T01:52:01.677Z,12
2023-01-21T01:53:01.687Z,12
2023-01-21T01:54:02.433Z,13
2023-01-21T01:55:02.275Z,12
2023-01-21T01:56:03.186Z,12
2023-01-21T01:57:01.682Z,12
2023-01-21T01:58:01.724Z,12
2023-01-21T01:59:02.519Z,12
2023-01-21T02:00:02.249Z,12
2023-01-21T02:01:01.741Z,12
2023-01-21T02:02:02.299Z,12
2023-01-21T02:03:01.741Z,12
2023-01-21T02:04:01.714Z,12
2023-01-21T02:05:02.174Z,12
2023-01-21T02:06:02.148Z,12
2023-01-21T02:07:02.580Z,12
2023-01-21T02:08:01.696Z,13
2023-01-21T02:09:00.521Z,11
2023-01-21T02:10:01.688Z,12
2023-01-21T02:11:03.909Z,12
2023-01-21T02:12:02.142Z,12
2023-01-21T02:13:02.294Z,12
2023-01-21T02:14:01.724Z,12
2023-01-21T02:15:01.691Z,12
2023-01-21T02:16:01.752Z,13
2023-01-21T02:17:01.969Z,12
2023-01-21T02:18:01.727Z,12
2023-01-21T02:19:01.765Z,12
2023-01-21T02:20:01.775Z,12
2023-01-21T02:21:01.819Z,12
2023-01-21T02:22:01.680Z,12
2023-01-21T02:23:01.693Z,12
2023-01-21T02:24:01.920Z,12
2023-01-21T02:25:02.457Z,12
2023-01-21T02:26:01.675Z,12
2023-01-21T02:27:02.551Z,12
2023-01-21T02:28:01.776Z,12
2023-01-21T02:29:01.907Z,12
2023-01-21T02:30:01.680Z,12
2023-01-21T02:31:02.213Z,12
2023-01-21T02:32:02.092Z,12
2023-01-21T02:33:02.279Z,12
2023-01-21T02:34:02.200Z,11
2023-01-21T02:35:02.303Z,12
2023-01-21T02:36:01.790Z,12
2023-01-21T02:37:01.729Z,13
2023-01-21T02:38:01.676Z,12
2023-01-21T02:39:01.983Z,12
2023-01-21T02:40:01.724Z,11
2023-01-21T02:41:02.347Z,11
2023-01-21T02:42:01.664Z,12
2023-01-21T02:43:02.435Z,12
2023-01-21T02:44:02.054Z,12
2023-01-21T02:45:02.614Z,12
2023-01-21T02:46:02.130Z,11
2023-01-21T02:47:01.673Z,11
2023-01-21T02:48:01.694Z,11
2023-01-21T02:49:02.299Z,12
2023-01-21T02:50:01.688Z,11
2023-01-21T02:51:02.460Z,11
2023-01-21T02:52:01.696Z,11
2023-01-21T02:53:01.741Z,12
2023-01-21T02:54:01.750Z,12
2023-01-21T02:55:02.476Z,11
2023-01-21T02:56:01.691Z,12
2023-01-21T02:57:01.808Z,12
2023-01-21T02:58:01.714Z,11
2023-01-21T02:59:01.796Z,12
2023-01-21T03:00:02.376Z,12
2023-01-21T03:01:02.014Z,12
2023-01-21T03:02:01.715Z,12
2023-01-21T03:03:01.723Z,12
2023-01-21T03:04:01.903Z,11
2023-01-21T03:05:01.716Z,11
2023-01-21T03:06:01.851Z,12
2023-01-21T03:07:01.712Z,12
2023-01-21T03:08:01.687Z,13
2023-01-21T03:09:02.303Z,11
2023-01-21T03:10:02.512Z,12
2023-01-21T03:11:01.979Z,11
2023-01-21T03:12:01.708Z,11
2023-01-21T03:13:01.675Z,12
2023-01-21T03:14:02.758Z,12
2023-01-21T03:15:02.045Z,12
2023-01-21T03:16:01.015Z,12
2023-01-21T03:17:02.292Z,12
2023-01-21T03:18:01.679Z,11
2023-01-21T03:19:01.675Z,11
2023-01-21T03:20:02.428Z,12
2023-01-21T03:21:02.364Z,12
2023-01-21T03:22:02.598Z,12
2023-01-21T03:23:02.480Z,12
2023-01-21T03:24:02.459Z,12
2023-01-21T03:25:01.996Z,12
2023-01-21T03:26:02.253Z,13
2023-01-21T03:27:02.026Z,14
2023-01-21T03:28:01.668Z,13
2023-01-21T03:29:02.124Z,13
2023-01-21T03:30:02.209Z,12
2023-01-21T03:31:01.836Z,12
2023-01-21T03:32:01.940Z,13
2023-01-21T03:33:01.677Z,12
2023-01-21T03:34:02.465Z,12
2023-01-21T03:35:02.290Z,12
2023-01-21T03:36:01.671Z,13
2023-01-21T03:37:02.108Z,12
2023-01-21T03:38:01.453Z,12
2023-01-21T03:39:02.268Z,13
2023-01-21T03:40:01.682Z,13
2023-01-21T03:41:01.658Z,13
2023-01-21T03:42:01.966Z,12
2023-01-21T03:43:01.932Z,12
2023-01-21T03:44:01.663Z,12
2023-01-21T03:45:01.678Z,12
2023-01-21T03:46:02.423Z,12
2023-01-21T03:47:02.079Z,12
2023-01-21T03:48:02.368Z,13
2023-01-21T03:49:01.715Z,13
2023-01-21T03:50:01.673Z,12
2023-01-21T03:51:01.840Z,12
2023-01-21T03:52:02.263Z,12
2023-01-21T03:53:02.598Z,12
2023-01-21T03:54:01.679Z,12
2023-01-21T03:55:02.578Z,11
2023-01-21T03:56:02.256Z,11
2023-01-21T03:57:02.533Z,12
2023-01-21T03:58:02.632Z,12
2023-01-21T03:59:02.658Z,12
2023-01-21T04:00:00.648Z,12
2023-01-21T04:01:02.199Z,12
2023-01-21T04:02:01.735Z,12
2023-01-21T04:03:01.754Z,12
2023-01-21T04:04:01.696Z,12
2023-01-21T04:05:01.675Z,12
2023-01-21T04:06:02.333Z,12
2023-01-21T04:07:02.610Z,12
2023-01-21T04:08:02.397Z,12
2023-01-21T04:09:01.669Z,12
2023-01-21T04:10:02.237Z,12
2023-01-21T04:11:01.661Z,12
2023-01-21T04:12:02.379Z,12
2023-01-21T04:13:02.335Z,12
2023-01-21T04:14:01.926Z,12
2023-01-21T04:15:05.185Z,11
2023-01-21T04:16:01.685Z,12
2023-01-21T04:17:02.321Z,13
2023-01-21T04:18:01.648Z,12
2023-01-21T04:19:02.362Z,12
2023-01-21T04:20:02.371Z,12
2023-01-21T04:21:01.942Z,12
2023-01-21T04:22:01.888Z,12
2023-01-21T04:23:01.188Z,12
2023-01-21T04:24:02.307Z,12
2023-01-21T04:25:01.850Z,13
2023-01-21T04:26:01.659Z,12
2023-01-21T04:27:01.660Z,12
2023-01-21T04:28:01.668Z,12
2023-01-21T04:29:02.504Z,12
2023-01-21T04:30:01.991Z,12
2023-01-21T04:31:02.200Z,12
2023-01-21T04:32:02.098Z,12
2023-01-21T04:33:01.681Z,12
2023-01-21T04:34:02.269Z,12
2023-01-21T04:35:01.673Z,12
2023-01-21T04:36:02.376Z,12
2023-01-21T04:37:01.694Z,12
2023-01-21T04:38:01.908Z,12
2023-01-21T04:39:01.990Z,12
2023-01-21T04:40:02.663Z,13
2023-01-21T04:41:02.211Z,12
2023-01-21T04:42:01.664Z,11
2023-01-21T04:43:02.115Z,11
2023-01-21T04:44:01.639Z,12
2023-01-21T04:45:01.677Z,12
2023-01-21T04:46:01.753Z,11
2023-01-21T04:47:02.244Z,11
2023-01-21T04:48:02.143Z,12
2023-01-21T04:49:02.379Z,11
2023-01-21T04:50:01.852Z,12
2023-01-21T04:51:01.708Z,12
2023-01-21T04:52:02.276Z,12
2023-01-21T04:53:02.290Z,11
2023-01-21T04:54:02.612Z,12
2023-01-21T04:55:01.770Z,12
2023-01-21T04:56:01.936Z,11
2023-01-21T04:57:02.102Z,11
2023-01-21T04:58:01.636Z,12
2023-01-21T04:59:02.191Z,12
2023-01-21T05:00:01.831Z,11
2023-01-21T05:01:01.728Z,11
2023-01-21T05:02:02.430Z,11
2023-01-21T05:03:01.642Z,11
2023-01-21T05:04:01.878Z,12
2023-01-21T05:05:02.594Z,11
2023-01-21T05:06:01.682Z,12
2023-01-21T05:07:01.664Z,12
2023-01-21T05:08:01.666Z,12
2023-01-21T05:09:02.249Z,11
2023-01-21T05:10:01.720Z,12
2023-01-21T05:11:01.803Z,11
2023-01-21T05:12:02.267Z,12
2023-01-21T05:13:02.231Z,11
2023-01-21T05:14:01.649Z,10
2023-01-21T05:15:01.649Z,10
2023-01-21T05:16:02.237Z,12
2023-01-21T05:17:01.903Z,11
2023-01-21T05:18:01.660Z,11
2023-01-21T05:19:01.680Z,11
2023-01-21T05:20:01.659Z,11
2023-01-21T05:21:02.205Z,12
2023-01-21T05:22:01.667Z,11
2023-01-21T05:23:02.275Z,11
2023-01-21T05:24:01.648Z,12
2023-01-21T05:25:01.668Z,12
2023-01-21T05:26:02.078Z,12
2023-01-21T05:27:01.921Z,11
2023-01-21T05:28:02.240Z,12
2023-01-21T05:29:02.186Z,10
2023-01-21T05:30:01.767Z,11
2023-01-21T05:31:01.665Z,11
2023-01-21T05:32:02.574Z,11
2023-01-21T05:33:01.649Z,11
2023-01-21T05:34:01.811Z,12
2023-01-21T05:35:01.869Z,11
2023-01-21T05:36:01.981Z,11
2023-01-21T05:37:01.650Z,11
2023-01-21T05:38:02.199Z,12
2023-01-21T05:39:02.017Z,11
2023-01-21T05:40:02.184Z,10
2023-01-21T05:41:01.665Z,12
2023-01-21T05:42:02.188Z,11
2023-01-21T05:43:01.846Z,13
2023-01-21T05:44:02.143Z,11
2023-01-21T05:45:02.188Z,11
2023-01-21T05:46:02.332Z,11
2023-01-21T05:47:02.408Z,11
2023-01-21T05:48:01.672Z,12
2023-01-21T05:49:01.634Z,11
2023-01-21T05:50:02.305Z,11
2023-01-21T05:51:02.140Z,11
2023-01-21T05:52:02.442Z,11
2023-01-21T05:53:01.636Z,11
2023-01-21T05:54:02.070Z,11
2023-01-21T05:55:02.949Z,11
2023-01-21T05:56:02.323Z,11
2023-01-21T05:57:02.148Z,11
2023-01-21T05:58:01.660Z,11
2023-01-21T05:59:01.629Z,11
2023-01-21T06:00:01.670Z,12
2023-01-21T06:01:01.640Z,11
2023-01-21T06:02:01.694Z,10
2023-01-21T06:03:01.688Z,10
2023-01-21T06:04:01.625Z,11
2023-01-21T06:05:02.556Z,11
2023-01-21T06:06:01.911Z,11
2023-01-21T06:07:01.627Z,11
2023-01-21T06:08:01.977Z,11
2023-01-21T06:09:01.631Z,12
2023-01-21T06:10:01.765Z,12
2023-01-21T06:11:02.508Z,13
2023-01-21T06:12:01.863Z,11
2023-01-21T06:13:02.410Z,12
2023-01-21T06:14:02.456Z,10
2023-01-21T06:15:02.295Z,11
2023-01-21T06:16:02.291Z,11
2023-01-21T06:17:01.837Z,10
2023-01-21T06:18:02.235Z,11
2023-01-21T06:19:01.644Z,11
2023-01-21T06:20:01.664Z,11
2023-01-21T06:21:02.672Z,11
2023-01-21T06:22:02.602Z,11
2023-01-21T06:23:01.952Z,11
2023-01-21T06:24:02.180Z,10
2023-01-21T06:25:01.882Z,11
2023-01-21T06:26:01.634Z,11
2023-01-21T06:27:01.648Z,11
2023-01-21T06:28:01.808Z,11
2023-01-21T06:29:01.633Z,11
2023-01-21T06:30:01.658Z,11
2023-01-21T06:31:02.069Z,11
2023-01-21T06:32:02.545Z,11
2023-01-21T06:33:01.966Z,10
2023-01-21T06:34:02.167Z,11
2023-01-21T06:35:01.641Z,11
2023-01-21T06:36:02.523Z,11
2023-01-21T06:37:01.051Z,12
2023-01-21T06:38:02.299Z,11
2023-01-21T06:39:02.550Z,12
2023-01-21T06:40:02.238Z,10
2023-01-21T06:41:01.661Z,11
2023-01-21T06:42:01.616Z,10
2023-01-21T06:43:01.623Z,11
2023-01-21T06:44:01.632Z,11
2023-01-21T06:45:01.758Z,10
2023-01-21T06:46:02.378Z,11
2023-01-21T06:47:02.626Z,11
2023-01-21T06:48:01.642Z,10
2023-01-21T06:49:02.382Z,11
2023-01-21T06:50:02.370Z,10
2023-01-21T06:51:02.626Z,11
2023-01-21T06:52:01.640Z,11
2023-01-21T06:53:02.016Z,10
2023-01-21T06:54:02.628Z,10
2023-01-21T06:55:01.964Z,11
2023-01-21T06:56:01.629Z,11
2023-01-21T06:57:02.242Z,10
2023-01-21T06:58:02.068Z,10
2023-01-21T06:59:02.503Z,10
2023-01-21T07:00:02.451Z,10
2023-01-21T07:01:01.744Z,11
2023-01-21T07:02:01.667Z,10
2023-01-21T07:03:02.287Z,11
2023-01-21T07:04:01.731Z,9
2023-01-21T07:05:01.929Z,10
2023-01-21T07:06:02.200Z,10
2023-01-21T07:07:01.856Z,10
2023-01-21T07:08:02.378Z,10
2023-01-21T07:09:01.671Z,10
2023-01-21T07:10:02.457Z,11
2023-01-21T07:11:01.610Z,10
2023-01-21T07:12:01.644Z,10
2023-01-21T07:13:02.042Z,10
2023-01-21T07:14:02.550Z,10
2023-01-21T07:15:02.463Z,11
2023-01-21T07:16:02.537Z,10
2023-01-21T07:17:02.012Z,10
2023-01-21T07:18:01.631Z,11
2023-01-21T07:19:01.635Z,10
2023-01-21T07:20:02.233Z,10
2023-01-21T07:21:01.847Z,10
2023-01-21T07:22:01.615Z,10
2023-01-21T07:23:01.722Z,11
2023-01-21T07:24:02.324Z,10
2023-01-21T07:25:01.640Z,11
2023-01-21T07:26:01.680Z,10
2023-01-21T07:27:01.621Z,10
2023-01-21T07:28:01.636Z,11
2023-01-21T07:29:02.045Z,11
2023-01-21T07:30:02.114Z,11
2023-01-21T07:31:01.792Z,11
2023-01-21T07:32:01.777Z,10
2023-01-21T07:33:01.635Z,10
2023-01-21T07:34:01.635Z,10
2023-01-21T07:35:01.636Z,10
2023-01-21T07:36:02.313Z,10
2023-01-21T07:37:02.554Z,11
2023-01-21T07:38:01.637Z,11
2023-01-21T07:39:01.654Z,11
2023-01-21T07:40:01.783Z,11
2023-01-21T07:41:02.342Z,11
2023-01-21T07:42:01.602Z,10
2023-01-21T07:43:01.625Z,11
2023-01-21T07:44:00.438Z,10
2023-01-21T07:45:01.646Z,10
2023-01-21T07:46:01.626Z,10
2023-01-21T07:47:01.966Z,11
2023-01-21T07:48:02.081Z,10
2023-01-21T07:49:02.159Z,10
2023-01-21T07:50:02.570Z,10
2023-01-21T07:51:01.708Z,10
2023-01-21T07:52:01.913Z,11
2023-01-21T07:53:01.619Z,11
2023-01-21T07:54:01.949Z,10
2023-01-21T07:55:01.759Z,11
2023-01-21T07:56:02.175Z,10
2023-01-21T07:57:02.245Z,12
2023-01-21T07:58:01.702Z,12
2023-01-21T07:59:02.368Z,11
2023-01-21T08:00:02.345Z,11
2023-01-21T08:01:01.614Z,11
2023-01-21T08:02:02.010Z,12
2023-01-21T08:03:02.233Z,12
2023-01-21T08:04:02.566Z,12
2023-01-21T08:05:01.640Z,11
2023-01-21T08:06:01.616Z,12
2023-01-21T08:07:01.702Z,13
2023-01-21T08:08:01.628Z,11
2023-01-21T08:09:01.728Z,12
2023-01-21T08:10:01.687Z,11
2023-01-21T08:11:02.260Z,12
2023-01-21T08:12:01.834Z,12
2023-01-21T08:13:02.240Z,12
2023-01-21T08:14:02.517Z,12
2023-01-21T08:15:01.708Z,12
2023-01-21T08:16:02.873Z,12
2023-01-21T08:17:01.818Z,12
2023-01-21T08:18:01.647Z,12
2023-01-21T08:19:01.663Z,12
2023-01-21T08:20:02.426Z,11
2023-01-21T08:21:01.837Z,12
2023-01-21T08:22:01.908Z,12
2023-01-21T08:23:01.981Z,12
2023-01-21T08:24:01.692Z,12
2023-01-21T08:25:02.090Z,12
2023-01-21T08:26:02.210Z,12
2023-01-21T08:27:01.657Z,14
2023-01-21T08:28:01.742Z,13
2023-01-21T08:29:01.608Z,16
2023-01-21T08:30:01.640Z,15
2023-01-21T08:31:01.704Z,15
2023-01-21T08:32:01.919Z,14
2023-01-21T08:33:01.654Z,15
2023-01-21T08:34:02.055Z,15
2023-01-21T08:35:01.628Z,14
2023-01-21T08:36:01.621Z,15
2023-01-21T08:37:02.287Z,16
2023-01-21T08:38:01.774Z,16
2023-01-21T08:39:01.624Z,14
2023-01-21T08:40:02.190Z,15
2023-01-21T08:41:02.332Z,16
2023-01-21T08:42:01.611Z,15
2023-01-21T08:43:01.620Z,15
2023-01-21T08:44:01.607Z,15
2023-01-21T08:45:01.593Z,15
2023-01-21T08:46:02.012Z,17
2023-01-21T08:47:01.619Z,17
2023-01-21T08:48:01.611Z,18
2023-01-21T08:49:02.625Z,18
2023-01-21T08:50:02.071Z,16
2023-01-21T08:51:01.401Z,16
2023-01-21T08:52:01.599Z,17
2023-01-21T08:53:01.803Z,15
2023-01-21T08:54:02.085Z,17
2023-01-21T08:55:02.416Z,16
2023-01-21T08:56:01.835Z,15
2023-01-21T08:57:02.335Z,16
2023-01-21T08:58:02.173Z,16
2023-01-21T08:59:01.635Z,15
2023-01-21T09:00:01.690Z,16
2023-01-21T09:01:01.757Z,14
2023-01-21T09:02:01.921Z,14
2023-01-21T09:03:01.597Z,14
2023-01-21T09:04:01.630Z,14
2023-01-21T09:05:01.622Z,13
2023-01-21T09:06:01.809Z,15
2023-01-21T09:07:02.190Z,14
2023-01-21T09:08:02.416Z,13
2023-01-21T09:09:02.068Z,13
2023-01-21T09:10:01.740Z,14
2023-01-21T09:11:01.676Z,12
2023-01-21T09:12:02.137Z,14
2023-01-21T09:13:01.590Z,12
2023-01-21T09:14:01.641Z,13
2023-01-21T09:15:01.699Z,12
2023-01-21T09:16:01.694Z,13
2023-01-21T09:17:02.226Z,14
2023-01-21T09:18:01.871Z,14
2023-01-21T09:19:01.753Z,13
2023-01-21T09:20:02.250Z,16
2023-01-21T09:21:01.620Z,14
2023-01-21T09:22:02.354Z,13
2023-01-21T09:23:02.307Z,13
2023-01-21T09:24:02.464Z,13
2023-01-21T09:25:02.293Z,14
2023-01-21T09:26:02.063Z,15
2023-01-21T09:27:01.607Z,14
2023-01-21T09:28:02.232Z,15
2023-01-21T09:29:01.692Z,15
2023-01-21T09:30:02.084Z,14
2023-01-21T09:31:01.711Z,14
2023-01-21T09:32:01.685Z,14
2023-01-21T09:33:01.661Z,13
2023-01-21T09:34:01.642Z,14
2023-01-21T09:35:01.700Z,14
2023-01-21T09:36:01.750Z,14
2023-01-21T09:37:01.826Z,14
2023-01-21T09:38:02.122Z,15
2023-01-21T09:39:01.970Z,15
2023-01-21T09:40:01.930Z,14
2023-01-21T09:41:01.864Z,15
2023-01-21T09:42:01.917Z,14
2023-01-21T09:43:02.030Z,13
2023-01-21T09:44:02.074Z,13
2023-01-21T09:45:02.143Z,13
2023-01-21T09:46:03.967Z,13
2023-01-21T09:47:01.886Z,14
2023-01-21T09:48:01.641Z,14
2023-01-21T09:49:01.796Z,13
2023-01-21T09:50:01.679Z,15
2023-01-21T09:51:01.730Z,16
2023-01-21T09:52:01.614Z,15
2023-01-21T09:53:02.483Z,15
2023-01-21T09:54:02.346Z,15
2023-01-21T09:55:01.597Z,14
2023-01-21T09:56:02.136Z,14
2023-01-21T09:57:01.619Z,14
2023-01-21T09:58:00.406Z,13
2023-01-21T09:59:02.335Z,14
2023-01-21T10:00:01.599Z,15
2023-01-21T10:01:01.892Z,14
2023-01-21T10:02:01.598Z,13
2023-01-21T10:03:01.627Z,14
2023-01-21T10:04:01.587Z,13
2023-01-21T10:05:02.103Z,14
2023-01-21T10:06:01.618Z,16
2023-01-21T10:07:01.661Z,15
2023-01-21T10:08:02.263Z,12
2023-01-21T10:09:02.366Z,13
2023-01-21T10:10:01.660Z,13
2023-01-21T10:11:01.843Z,15
2023-01-21T10:12:01.598Z,15
2023-01-21T10:13:01.590Z,15
2023-01-21T10:14:02.374Z,17
2023-01-21T10:15:02.102Z,17
2023-01-21T10:16:02.245Z,17
2023-01-21T10:17:01.923Z,17
2023-01-21T10:18:02.190Z,17
2023-01-21T10:19:01.628Z,17
2023-01-21T10:20:01.781Z,16
2023-01-21T10:21:02.139Z,17
2023-01-21T10:22:01.636Z,18
2023-01-21T10:23:01.596Z,18
2023-01-21T10:24:01.936Z,16
2023-01-21T10:25:02.095Z,17
2023-01-21T10:26:01.623Z,17
2023-01-21T10:27:01.620Z,16
2023-01-21T10:28:01.978Z,17
2023-01-21T10:29:02.307Z,19
2023-01-21T10:30:02.331Z,21
2023-01-21T10:31:01.834Z,18
2023-01-21T10:32:02.173Z,18
2023-01-21T10:33:02.238Z,21
2023-01-21T10:34:02.092Z,18
2023-01-21T10:35:02.191Z,19
2023-01-21T10:36:01.593Z,24
2023-01-21T10:37:02.486Z,19
2023-01-21T10:38:02.453Z,20
2023-01-21T10:39:01.772Z,19
2023-01-21T10:40:01.664Z,20
2023-01-21T10:41:02.321Z,20
2023-01-21T10:42:02.448Z,19
2023-01-21T10:43:01.583Z,19
2023-01-21T10:44:01.573Z,19
2023-01-21T10:45:01.901Z,19
2023-01-21T10:46:01.669Z,20
2023-01-21T10:47:01.715Z,20
2023-01-21T10:48:01.701Z,22
2023-01-21T10:49:02.083Z,22
2023-01-21T10:50:01.846Z,21
2023-01-21T10:51:02.293Z,20
2023-01-21T10:52:01.586Z,23
2023-01-21T10:53:01.569Z,21
2023-01-21T10:54:02.072Z,20
2023-01-21T10:55:02.001Z,21
2023-01-21T10:56:01.715Z,20
2023-01-21T10:57:01.674Z,20
2023-01-21T10:58:02.129Z,20
2023-01-21T10:59:01.654Z,19
2023-01-21T11:00:01.751Z,19
2023-01-21T11:01:02.228Z,21
2023-01-21T11:02:01.607Z,22
2023-01-21T11:03:02.214Z,22
2023-01-21T11:04:01.602Z,21
2023-01-21T11:05:00.973Z,21
2023-01-21T11:06:01.967Z,20
2023-01-21T11:07:01.594Z,21
2023-01-21T11:08:02.250Z,22
2023-01-21T11:09:01.719Z,20
2023-01-21T11:10:01.640Z,20
2023-01-21T11:11:02.378Z,22
2023-01-21T11:12:02.401Z,19
2023-01-21T11:13:10.477Z,20
2023-01-21T11:14:01.654Z,20
2023-01-21T11:15:01.566Z,21
2023-01-21T11:16:02.598Z,19
2023-01-21T11:17:01.656Z,18
2023-01-21T11:18:02.116Z,18
2023-01-21T11:19:01.955Z,22
2023-01-21T11:20:01.569Z,19
2023-01-21T11:21:01.627Z,21
2023-01-21T11:22:01.842Z,20
2023-01-21T11:23:02.367Z,21
2023-01-21T11:24:01.577Z,20
2023-01-21T11:25:02.304Z,24
2023-01-21T11:26:01.880Z,22
2023-01-21T11:27:01.591Z,21
2023-01-21T11:28:01.837Z,23
2023-01-21T11:29:00.903Z,21
2023-01-21T11:30:02.188Z,19
2023-01-21T11:31:01.706Z,19
2023-01-21T11:32:01.831Z,18
2023-01-21T11:33:01.598Z,18
2023-01-21T11:34:01.674Z,18
2023-01-21T11:35:01.783Z,17
2023-01-21T11:36:02.384Z,18
2023-01-21T11:37:02.201Z,18
2023-01-21T11:38:02.159Z,17
2023-01-21T11:39:02.260Z,16
2023-01-21T11:40:01.574Z,17
2023-01-21T11:41:01.705Z,17
2023-01-21T11:42:01.575Z,16
2023-01-21T11:43:01.957Z,15
2023-01-21T11:44:01.568Z,15
2023-01-21T11:45:01.585Z,15
2023-01-21T11:46:02.062Z,16
2023-01-21T11:47:01.662Z,15
2023-01-21T11:48:01.620Z,14
2023-01-21T11:49:01.568Z,14
2023-01-21T11:50:01.582Z,14
2023-01-21T11:51:01.762Z,15
2023-01-21T11:52:01.605Z,14
2023-01-21T11:53:02.091Z,15
2023-01-21T11:54:02.420Z,14
2023-01-21T11:55:01.560Z,13
2023-01-21T11:56:01.590Z,14
2023-01-21T11:57:01.900Z,16
2023-01-21T11:58:01.879Z,15
2023-01-21T11:59:01.583Z,13
2023-01-21T12:00:01.729Z,13
2023-01-21T12:01:02.268Z,14
2023-01-21T12:02:01.590Z,14
2023-01-21T12:03:02.331Z,14
2023-01-21T12:04:01.636Z,14
2023-01-21T12:05:02.152Z,14
2023-01-21T12:06:02.295Z,14
2023-01-21T12:07:01.929Z,14
2023-01-21T12:08:01.657Z,13
2023-01-21T12:09:02.287Z,14
2023-01-21T12:10:02.754Z,12
2023-01-21T12:11:01.985Z,12
2023-01-21T12:12:00.788Z,12
2023-01-21T12:13:02.327Z,13
2023-01-21T12:14:02.095Z,13
2023-01-21T12:15:02.282Z,13
2023-01-21T12:16:01.624Z,12
2023-01-21T12:17:02.276Z,12
2023-01-21T12:18:02.170Z,11
2023-01-21T12:19:02.190Z,12
2023-01-21T12:20:01.713Z,12
2023-01-21T12:21:02.003Z,12
2023-01-21T12:22:02.084Z,11
2023-01-21T12:23:01.563Z,13
2023-01-21T12:24:02.191Z,12
2023-01-21T12:25:01.576Z,12
2023-01-21T12:26:01.657Z,12
2023-01-21T12:27:01.585Z,12
2023-01-21T12:28:02.272Z,12
2023-01-21T12:29:01.559Z,12
2023-01-21T12:30:01.596Z,11
2023-01-21T12:31:01.780Z,12
2023-01-21T12:32:01.812Z,12
2023-01-21T12:33:01.609Z,11
2023-01-21T12:34:02.333Z,12
2023-01-21T12:35:01.663Z,12
2023-01-21T12:36:01.805Z,12
2023-01-21T12:37:02.042Z,12
2023-01-21T12:38:01.560Z,12
2023-01-21T12:39:01.566Z,12
2023-01-21T12:40:01.562Z,11
2023-01-21T12:41:02.180Z,11
2023-01-21T12:42:02.285Z,11
2023-01-21T12:43:01.865Z,12
2023-01-21T12:44:01.590Z,11
2023-01-21T12:45:01.593Z,11
2023-01-21T12:46:02.125Z,11
2023-01-21T12:47:01.996Z,12
2023-01-21T12:48:01.972Z,13
2023-01-21T12:49:02.129Z,11
2023-01-21T12:50:02.537Z,12
2023-01-21T12:51:01.582Z,12
2023-01-21T12:52:02.191Z,13
2023-01-21T12:53:01.625Z,13
2023-01-21T12:54:01.574Z,17
2023-01-21T12:55:02.258Z,19
2023-01-21T12:56:02.145Z,22
2023-01-21T12:57:01.653Z,39
2023-01-21T12:58:01.566Z,20
2023-01-21T12:59:01.579Z,23
2023-01-21T13:00:01.627Z,23
2023-01-21T13:01:01.812Z,15
2023-01-21T13:02:02.127Z,13
2023-01-21T13:03:01.595Z,12
2023-01-21T13:04:01.894Z,12
2023-01-21T13:05:01.580Z,13
2023-01-21T13:06:02.021Z,11
2023-01-21T13:07:02.025Z,11
2023-01-21T13:08:01.577Z,12
2023-01-21T13:09:01.551Z,11
2023-01-21T13:10:01.623Z,11
2023-01-21T13:11:01.553Z,12
2023-01-21T13:12:01.626Z,11
2023-01-21T13:13:01.852Z,10
2023-01-21T13:14:02.167Z,14
2023-01-21T13:15:01.606Z,13
2023-01-21T13:16:02.423Z,13
2023-01-21T13:17:01.575Z,12
2023-01-21T13:18:02.145Z,10
2023-01-21T13:19:01.626Z,11
2023-01-21T13:20:02.225Z,11
2023-01-21T13:21:02.495Z,11
2023-01-21T13:22:01.616Z,11
2023-01-21T13:23:01.550Z,10
2023-01-21T13:24:01.566Z,10
2023-01-21T13:25:01.638Z,10
2023-01-21T13:26:02.357Z,10
2023-01-21T13:27:01.654Z,10
2023-01-21T13:28:01.611Z,14
2023-01-21T13:29:02.422Z,13
2023-01-21T13:30:02.216Z,12
2023-01-21T13:31:01.661Z,15
2023-01-21T13:32:01.780Z,15
2023-01-21T13:33:01.939Z,15
2023-01-21T13:34:01.947Z,12
2023-01-21T13:35:01.697Z,11
2023-01-21T13:36:02.215Z,11
2023-01-21T13:37:01.671Z,10
2023-01-21T13:38:01.595Z,10
2023-01-21T13:39:01.549Z,10
2023-01-21T13:40:02.311Z,10
2023-01-21T13:41:02.013Z,10
2023-01-21T13:42:01.896Z,10
2023-01-21T13:43:01.800Z,10
2023-01-21T13:44:01.576Z,10
2023-01-21T13:45:01.645Z,10
2023-01-21T13:46:02.236Z,11
2023-01-21T13:47:01.593Z,10
2023-01-21T13:48:01.688Z,9
2023-01-21T13:49:02.335Z,11
2023-01-21T13:50:02.010Z,11
2023-01-21T13:51:02.202Z,12
2023-01-21T13:52:01.695Z,12
2023-01-21T13:53:01.633Z,11
2023-01-21T13:54:01.584Z,12
2023-01-21T13:55:01.550Z,14
2023-01-21T13:56:01.551Z,20
2023-01-21T13:57:01.564Z,19
2023-01-21T13:58:02.778Z,18
2023-01-21T13:59:01.600Z,14
2023-01-21T14:00:02.506Z,12
2023-01-21T14:01:01.867Z,14
2023-01-21T14:02:01.689Z,15
2023-01-21T14:03:00.817Z,13
2023-01-21T14:04:03.251Z,11
2023-01-21T14:05:02.230Z,12
2023-01-21T14:06:02.144Z,11
2023-01-21T14:07:01.860Z,14
2023-01-21T14:08:01.605Z,12
2023-01-21T14:09:02.237Z,12
2023-01-21T14:10:01.631Z,11
2023-01-21T14:11:01.599Z,11
2023-01-21T14:12:01.620Z,12
2023-01-21T14:13:02.024Z,13
2023-01-21T14:14:01.946Z,12
2023-01-21T14:15:01.907Z,13